Flight Track Log - Related Links

Times and Time Zones

All times are in EDT time to prevent confusion due to time zone crossing. See the FLG3800 flight status page for this flight to view local times or setup timezone preferences in your user account.

Time Position Orientation Groundspeed Altitude Reporting Facility
EDT Latitude Longitude Course Direction KTS MPH feet Rate Location/Type
Mon 08:11:29 AM 42.2056 -85.5356 111° Southeast 160 184 2,500  Level Chicago Center
Mon 08:12:30 AM 42.1831 -85.4553 111° Southeast 223 257 4,300 2,151 Climbing Chicago Center
Mon 08:13:15 AM 42.1686 -85.3744 104° East 228 262 6,300 2,686 Climbing Cleveland Center
Mon 08:14:15 AM 42.1519 -85.2725 102° East 250 288 9,000 2,400 Climbing Cleveland Center
Mon 08:15:15 AM 42.1333 -85.1617 103° East 280 322 11,100 1,050 Climbing Cleveland Center
Mon 08:16:15 AM 42.1114 -85.0314 103° East 319 367 11,100  Level Cleveland Center
Mon 08:17:15 AM 42.0833 -84.8894 105° East 362 417 11,100  Level Cleveland Center
Mon 08:18:15 AM 42.0444 -84.7608 112° Southeast 373 429 11,100  Level Cleveland Center
Mon 08:19:15 AM 42.0033 -84.6269 112° Southeast 378 435 11,100  Level Cleveland Center
Mon 08:20:15 AM 41.9642 -84.4903 111° Southeast 383 441 11,100 -51 Level Cleveland Center
Mon 08:21:13 AM 41.9189 -84.3536 114° Southeast 394 453 11,000 -67 Descending Cleveland Center
Mon 08:21:44 AM 41.9019 -84.2911 110° East 394 453 11,000  Level Cleveland Center
Mon 08:22:15 AM 41.8831 -84.2342 114° Southeast 383 441 11,000  Level Cleveland Center
Mon 08:22:45 AM 41.8606 -84.1578 112° Southeast 390 449 11,000  Level Cleveland Center
Mon 08:23:15 AM 41.8414 -84.0981 113° Southeast 388 447 11,000  Level Cleveland Center
Mon 08:23:46 AM 41.8544 -84.0094 79° East 399 459 11,000 -100 Level Cleveland Center
Mon 08:24:15 AM 41.8744 -83.9717 55° Northeast 366 421 10,900  Descending Cleveland Center
Mon 08:24:47 AM 41.9367 -83.9106 36° Northeast 398 458 11,000  Climbing Cleveland Center
Mon 08:25:15 AM 41.9628 -83.8728 47° Northeast 341 392 10,900  Descending Cleveland Center
Mon 08:25:41 AM 42.0164 -83.8225 35° Northeast 402 463 11,000 100 Climbing Cleveland Center
Mon 08:26:15 AM 42.0528 -83.7825 39° Northeast 368 423 11,000  Level Cleveland Center
Mon 08:26:42 AM 42.1064 -83.7319 35° Northeast 402 463 11,000  Level Cleveland Center
Mon 08:27:15 AM 42.1408 -83.6944 39° Northeast 381 438 11,000  Level Cleveland Center
Mon 08:27:43 AM 42.1944 -83.6408 37° Northeast 399 459 11,000  Level Cleveland Center
Mon 08:27:59 AM 42.2078 -83.6169 53° Northeast 369 425 11,000 -171 Level FAA TRACON SMA TRACON (SMA)
Mon 08:28:18 AM 42.2283 -83.5769 55° Northeast 329 379 10,900  Descending FAA TRACON SMA TRACON (SMA)
Mon 08:28:38 AM 42.2433 -83.5478 55° Northeast 309 356 11,000 150 Climbing FAA TRACON SMA TRACON (SMA)
Mon 08:28:58 AM 42.2600 -83.5203 51° Northeast 318 366 11,000 -750 Level FAA TRACON SMA TRACON (SMA)
Mon 08:29:18 AM 42.2900 -83.5000 27° Northeast 321 369 10,500 -1,463 Descending FAA TRACON SMA TRACON (SMA)
Mon 08:29:39 AM 42.3150 -83.4864 22° Northeast 317 365 10,000 -1,610 Descending FAA TRACON SMA TRACON (SMA)
Mon 08:29:59 AM 42.3464 -83.4683 23° Northeast 319 367 9,400 -1,650 Descending FAA TRACON SMA TRACON (SMA)
Mon 08:30:19 AM 42.3711 -83.4544 23° Northeast 317 365 8,900 -1,500 Descending FAA TRACON SMA TRACON (SMA)
Mon 08:30:39 AM 42.3961 -83.4406 22° Northeast 316 364 8,400 -2,049 Descending FAA TRACON SMA TRACON (SMA)
Mon 08:31:00 AM 42.4272 -83.4250 20° North 312 359 7,500 -2,850 Descending FAA TRACON SMA TRACON (SMA)
Mon 08:31:19 AM 42.4472 -83.4039 38° Northeast 291 335 6,500 -3,231 Descending FAA TRACON SMA TRACON (SMA)
Mon 08:31:39 AM 42.4636 -83.3683 58° Northeast 300 345 5,400 -3,000 Descending FAA TRACON SMA TRACON (SMA)
Mon 08:31:59 AM 42.4828 -83.3489 37° Northeast 302 348 4,500 -2,100 Descending FAA TRACON SMA TRACON (SMA)
Mon 08:32:19 AM 42.5033 -83.3283 36° Northeast 298 343 4,000 -750 Descending FAA TRACON SMA TRACON (SMA)
Mon 08:32:39 AM 42.5278 -83.3047 35° Northeast 273 314 4,000  Level FAA TRACON SMA TRACON (SMA)
Mon 08:32:59 AM 42.5453 -83.2872 36° Northeast 259 298 4,000  Level FAA TRACON SMA TRACON (SMA)
Mon 08:33:19 AM 42.5586 -83.2667 49° Northeast 250 288 4,000  Level FAA TRACON SMA TRACON (SMA)
Mon 08:33:39 AM 42.5572 -83.2364 94° East 209 241 4,000  Level FAA TRACON SMA TRACON (SMA)
Mon 08:34:19 AM 42.5275 -83.2200 158° South 172 198 4,000  Level FAA TRACON SMA TRACON (SMA)
Mon 08:34:39 AM 42.5139 -83.2161 168° South 167 192 4,000  Level FAA TRACON SMA TRACON (SMA)
Mon 08:34:59 AM 42.4978 -83.2117 169° South 167 192 4,000  Level FAA TRACON SMA TRACON (SMA)
Mon 08:35:19 AM 42.4850 -83.2081 168° South 166 191 4,000  Level FAA TRACON SMA TRACON (SMA)
Mon 08:35:39 AM 42.4683 -83.2039 170° South 170 196 4,000  Level FAA TRACON SMA TRACON (SMA)
Mon 08:35:59 AM 42.4539 -83.2006 170° South 170 196 4,000  Level FAA TRACON SMA TRACON (SMA)
Mon 08:36:19 AM 42.4375 -83.2075 197° South 161 185 4,000  Level FAA TRACON SMA TRACON (SMA)
Mon 08:36:39 AM 42.4239 -83.2181 210° Southwest 161 185 4,000  Level FAA TRACON SMA TRACON (SMA)

Login

Don't have an account? Register now (free) for customized features, flight alerts, and more!